createdAt,value
2019-03-25T00:01:38.663Z,61.30
2019-03-25T00:04:09.435Z,61.42
2019-03-25T00:06:40.100Z,61.65
2019-03-25T00:09:11.257Z,61.84
2019-03-25T00:11:42.238Z,62.52
2019-03-25T00:14:13.313Z,62.92
2019-03-25T00:16:44.256Z,62.85
2019-03-25T00:19:15.196Z,62.65
2019-03-25T00:21:46.122Z,62.62
2019-03-25T00:24:16.903Z,62.60
2019-03-25T00:26:47.851Z,62.19
2019-03-25T00:29:19.383Z,62.68
2019-03-25T00:31:50.370Z,63.03
2019-03-25T00:34:21.026Z,62.85
2019-03-25T00:36:51.966Z,62.60
2019-03-25T00:39:23.015Z,62.85
2019-03-25T00:41:53.762Z,62.48
2019-03-25T00:44:24.395Z,62.14
2019-03-25T00:46:55.074Z,61.96
2019-03-25T00:49:25.991Z,61.93
2019-03-25T00:51:56.703Z,62.13
2019-03-25T00:54:27.411Z,62.25
2019-03-25T00:56:58.579Z,62.15
2019-03-25T00:59:29.363Z,62.32
2019-03-25T01:02:00.601Z,62.38
2019-03-25T01:04:31.250Z,62.29
2019-03-25T01:07:02.023Z,62.54
2019-03-25T01:09:33.024Z,62.62
2019-03-25T01:12:04.011Z,62.67
2019-03-25T01:14:34.783Z,62.53
2019-03-25T01:17:05.601Z,62.46
2019-03-25T01:19:36.238Z,62.77
2019-03-25T01:22:07.311Z,63.13
2019-03-25T01:24:38.127Z,63.32
2019-03-25T01:27:08.775Z,63.42
2019-03-25T01:29:39.457Z,63.58
2019-03-25T01:32:10.188Z,63.94
2019-03-25T01:34:41.404Z,63.89
2019-03-25T01:37:12.073Z,64.35
2019-03-25T01:39:42.758Z,64.22
2019-03-25T01:42:13.424Z,64.30
2019-03-25T01:44:44.091Z,64.88
2019-03-25T01:47:14.733Z,64.84
2019-03-25T01:49:45.476Z,65.03
2019-03-25T01:52:16.220Z,64.94
2019-03-25T01:54:46.906Z,64.85
2019-03-25T01:57:17.537Z,64.89
2019-03-25T01:59:48.311Z,64.85
2019-03-25T02:02:18.976Z,64.94
2019-03-25T02:04:49.631Z,65.23
2019-03-25T02:07:20.297Z,65.57
2019-03-25T02:09:51.261Z,65.64
2019-03-25T02:12:21.917Z,65.86
2019-03-25T02:14:52.564Z,66.25
2019-03-25T02:17:23.570Z,66.61
2019-03-25T02:19:54.560Z,66.95
2019-03-25T02:22:25.672Z,67.40
2019-03-25T02:24:56.554Z,67.68
2019-03-25T02:27:27.211Z,67.68
2019-03-25T02:29:57.848Z,68.16
2019-03-25T02:32:28.838Z,68.28
2019-03-25T02:34:59.463Z,68.52
2019-03-25T02:37:30.492Z,68.81
2019-03-25T02:40:01.409Z,69.09
2019-03-25T02:42:32.080Z,69.47
2019-03-25T02:45:03.000Z,69.77
2019-03-25T02:47:33.629Z,70.23
2019-03-25T02:50:04.434Z,70.97
2019-03-25T02:52:35.621Z,71.21
2019-03-25T02:55:07.567Z,71.30
2019-03-25T02:57:38.220Z,71.03
2019-03-25T03:00:11.558Z,70.62
2019-03-25T03:02:42.185Z,70.03
2019-03-25T03:05:12.884Z,69.93
2019-03-25T03:07:44.235Z,69.83
2019-03-25T03:10:17.834Z,69.48
2019-03-25T03:12:48.494Z,69.43
2019-03-25T03:15:19.211Z,69.45
2019-03-25T03:17:50.212Z,68.97
2019-03-25T03:20:21.167Z,68.79
2019-03-25T03:22:52.190Z,68.69
2019-03-25T03:25:22.827Z,68.53
2019-03-25T03:27:53.770Z,68.10
2019-03-25T03:30:24.473Z,67.65
2019-03-25T03:32:55.516Z,66.89
2019-03-25T03:35:26.189Z,65.92
2019-03-25T03:37:56.830Z,65.24
2019-03-25T03:40:27.493Z,64.99
2019-03-25T03:42:58.147Z,64.81
2019-03-25T03:45:28.768Z,65.29
2019-03-25T03:47:59.428Z,65.56
2019-03-25T03:50:30.565Z,65.12
2019-03-25T03:53:01.607Z,64.60
2019-03-25T03:55:32.555Z,64.21
2019-03-25T03:58:03.319Z,64.47
2019-03-25T04:00:35.649Z,64.08
2019-03-25T04:03:06.394Z,64.19
2019-03-25T04:05:37.027Z,64.07
2019-03-25T04:08:07.658Z,63.99
2019-03-25T04:10:38.911Z,64.03
2019-03-25T04:13:09.596Z,65.26
2019-03-25T04:15:40.272Z,65.62
2019-03-25T04:18:10.931Z,64.95
2019-03-25T04:20:42.200Z,64.92
2019-03-25T04:23:12.840Z,64.57
2019-03-25T04:25:43.871Z,64.45
2019-03-25T04:28:21.633Z,64.95
2019-03-25T04:30:52.378Z,64.69
2019-03-25T04:33:23.704Z,67.90
2019-03-25T04:35:54.964Z,71.42
2019-03-25T04:38:25.716Z,73.30
2019-03-25T04:40:56.759Z,76.24
2019-03-25T04:43:27.725Z,76.87
2019-03-25T04:45:58.427Z,77.27
2019-03-25T04:48:29.288Z,78.81
2019-03-25T04:50:59.946Z,80.08
2019-03-25T04:53:31.069Z,81.30
2019-03-25T04:56:02.036Z,81.67
2019-03-25T04:58:32.682Z,81.59
2019-03-25T05:01:03.936Z,81.77
2019-03-25T05:03:34.935Z,82.54
2019-03-25T05:06:05.837Z,82.75
2019-03-25T05:08:36.501Z,81.58
2019-03-25T05:11:07.205Z,81.60
2019-03-25T05:13:38.224Z,81.98
2019-03-25T05:16:08.874Z,82.59
2019-03-25T05:18:39.535Z,83.01
2019-03-25T05:21:10.243Z,82.87
2019-03-25T05:23:40.901Z,83.20
2019-03-25T05:26:11.879Z,83.86
2019-03-25T05:28:42.854Z,84.81
2019-03-25T05:31:13.665Z,84.62
2019-03-25T05:33:44.340Z,85.03
2019-03-25T05:36:14.988Z,84.79
2019-03-25T05:38:45.716Z,85.54
2019-03-25T05:41:16.674Z,85.35
2019-03-25T05:43:47.365Z,85.19
2019-03-25T05:46:18.071Z,85.00
2019-03-25T05:48:48.830Z,85.03
2019-03-25T05:51:19.923Z,85.44
2019-03-25T05:53:50.667Z,85.23
2019-03-25T05:56:21.298Z,84.82
2019-03-25T05:58:51.969Z,84.99
2019-03-25T06:01:22.731Z,84.39
2019-03-25T06:03:53.393Z,84.64
2019-03-25T06:06:24.077Z,84.56
2019-03-25T06:08:54.719Z,84.67
2019-03-25T06:11:25.390Z,85.23
2019-03-25T06:13:56.112Z,85.14
2019-03-25T06:16:27.477Z,85.24
2019-03-25T06:18:58.162Z,85.42
2019-03-25T06:21:29.447Z,85.37
2019-03-25T06:24:00.682Z,85.50
2019-03-25T06:26:31.349Z,84.92
2019-03-25T06:29:02.327Z,84.12
2019-03-25T06:31:33.317Z,84.87
2019-03-25T06:34:03.970Z,84.33
2019-03-25T06:36:34.960Z,83.07
2019-03-25T06:39:06.759Z,82.51
2019-03-25T06:41:37.769Z,83.30
2019-03-25T06:44:08.442Z,84.38
2019-03-25T06:46:39.121Z,83.98
2019-03-25T06:49:09.836Z,84.77
2019-03-25T06:51:40.939Z,84.85
2019-03-25T06:57:59.680Z,81.12
2019-03-25T07:00:30.369Z,79.29
2019-03-25T07:03:01.058Z,78.31
2019-03-25T07:05:32.349Z,78.33
2019-03-25T07:08:03.042Z,78.92
2019-03-25T07:10:35.531Z,79.95
2019-03-25T07:13:07.356Z,77.91
2019-03-25T07:15:38.023Z,75.48
2019-03-25T07:18:08.802Z,75.23
2019-03-25T07:20:39.458Z,75.59
2019-03-25T07:23:10.121Z,74.91
2019-03-25T07:25:40.787Z,74.23
2019-03-25T07:28:11.459Z,73.79
2019-03-25T07:30:42.447Z,72.62
2019-03-25T07:33:13.115Z,70.12
2019-03-25T07:35:43.848Z,69.71
2019-03-25T07:38:14.488Z,68.08
2019-03-25T07:40:45.143Z,68.48
2019-03-25T07:43:15.860Z,67.53
2019-03-25T07:45:46.756Z,67.96
2019-03-25T07:48:17.782Z,68.11
2019-03-25T07:50:48.566Z,69.07
2019-03-25T07:53:19.188Z,68.45
2019-03-25T07:55:49.838Z,69.67
2019-03-25T07:58:20.509Z,67.25
2019-03-25T08:00:51.173Z,66.31
2019-03-25T08:03:22.179Z,65.97
2019-03-25T08:05:53.063Z,64.41
2019-03-25T08:08:23.959Z,65.33
2019-03-25T08:10:54.867Z,65.73
2019-03-25T08:13:25.977Z,65.07
2019-03-25T08:15:56.845Z,66.88
2019-03-25T08:18:27.475Z,66.55
2019-03-25T08:20:58.115Z,64.88
2019-03-25T08:23:29.142Z,64.42
2019-03-25T08:25:59.819Z,65.36
2019-03-25T08:28:30.481Z,65.45
2019-03-25T08:31:01.142Z,65.76
2019-03-25T08:33:32.131Z,64.88
2019-03-25T08:36:02.785Z,63.66
2019-03-25T08:38:34.030Z,63.51
2019-03-25T08:41:06.136Z,61.18
2019-03-25T08:43:36.760Z,61.22
2019-03-25T08:46:07.996Z,57.78
2019-03-25T08:48:39.267Z,55.83
2019-03-25T08:51:09.926Z,56.97
2019-03-25T08:53:40.630Z,57.28
2019-03-25T08:56:11.564Z,59.17
2019-03-25T08:58:42.577Z,57.40
2019-03-25T09:01:13.534Z,56.67
2019-03-25T09:03:44.250Z,58.51
2019-03-25T09:06:14.960Z,58.81
2019-03-25T09:08:45.639Z,57.97
2019-03-25T09:11:16.296Z,55.63
2019-03-25T09:13:46.937Z,54.72
2019-03-25T09:16:17.613Z,53.97
2019-03-25T09:18:48.572Z,53.87
2019-03-25T09:21:19.488Z,53.36
2019-03-25T09:23:50.496Z,50.74
2019-03-25T09:26:21.165Z,48.16
2019-03-25T09:28:52.017Z,49.31
2019-03-25T09:31:22.849Z,48.78
2019-03-25T09:33:54.071Z,46.51
2019-03-25T09:36:25.029Z,44.03
2019-03-25T09:38:55.658Z,41.12
2019-03-25T09:41:26.298Z,43.06
2019-03-25T09:43:56.993Z,41.96
2019-03-25T09:46:27.973Z,45.14
2019-03-25T09:48:59.045Z,49.53
2019-03-25T09:51:29.705Z,49.89
2019-03-25T09:54:00.398Z,49.66
2019-03-25T09:56:31.032Z,50.74
2019-03-25T09:59:01.699Z,49.34
2019-03-25T10:01:32.408Z,50.54
2019-03-25T10:04:03.050Z,50.81
2019-03-25T10:06:34.099Z,47.37
2019-03-25T10:09:09.093Z,50.59
2019-03-25T10:11:39.805Z,49.71
2019-03-25T10:14:10.913Z,48.54
2019-03-25T10:16:41.894Z,51.56
2019-03-25T10:19:12.529Z,54.05
2019-03-25T10:21:43.203Z,55.39
2019-03-25T10:24:13.898Z,55.80
2019-03-25T10:26:44.619Z,58.25
2019-03-25T10:29:15.261Z,58.47
2019-03-25T10:31:45.899Z,59.26
2019-03-25T10:34:16.915Z,60.01
2019-03-25T10:36:47.577Z,60.22
2019-03-25T10:39:18.661Z,58.23
2019-03-25T10:41:49.707Z,56.21
2019-03-25T10:44:20.752Z,54.43
2019-03-25T10:46:51.376Z,56.00
2019-03-25T10:49:22.085Z,53.61
2019-03-25T10:51:52.746Z,50.10
2019-03-25T10:54:23.400Z,48.70
2019-03-25T10:56:54.034Z,45.95
2019-03-25T10:59:24.755Z,50.30
2019-03-25T11:01:55.548Z,51.07
2019-03-25T11:04:26.226Z,52.28
2019-03-25T11:06:57.229Z,53.48
2019-03-25T11:09:27.876Z,51.46
2019-03-25T11:12:01.312Z,50.33
2019-03-25T11:14:31.961Z,49.55
2019-03-25T11:17:02.641Z,53.61
2019-03-25T11:19:33.298Z,53.13
2019-03-25T11:22:03.930Z,53.98
2019-03-25T11:24:34.928Z,55.96
2019-03-25T11:27:05.668Z,55.49
2019-03-25T11:29:36.298Z,52.62
2019-03-25T11:32:07.011Z,52.37
2019-03-25T11:34:37.677Z,54.41
2019-03-25T11:37:08.327Z,53.66
2019-03-25T11:39:38.999Z,52.90
2019-03-25T11:42:10.354Z,52.54
2019-03-25T11:44:41.110Z,51.82
2019-03-25T11:47:11.775Z,53.72
2019-03-25T11:49:44.486Z,53.38
2019-03-25T11:52:14.753Z,55.18
2019-03-25T11:54:45.556Z,56.30
2019-03-25T11:57:16.362Z,58.38
2019-03-25T11:59:47.022Z,68.07
2019-03-25T12:02:18.043Z,69.58
2019-03-25T12:04:48.696Z,70.87
2019-03-25T12:07:19.753Z,71.38
2019-03-25T12:09:51.022Z,72.21
2019-03-25T12:12:22.024Z,72.27
2019-03-25T12:14:52.954Z,71.29
2019-03-25T12:17:23.627Z,70.83
2019-03-25T12:19:54.258Z,68.98
2019-03-25T12:22:25.266Z,66.09
2019-03-25T12:24:55.930Z,64.47
2019-03-25T12:27:27.139Z,63.41
2019-03-25T12:29:57.835Z,58.63
2019-03-25T12:32:28.836Z,57.71
2019-03-25T12:34:59.523Z,54.56
2019-03-25T12:37:30.230Z,53.33
2019-03-25T12:40:00.887Z,52.71
2019-03-25T12:42:31.588Z,54.04
2019-03-25T12:45:02.232Z,52.21
2019-03-25T12:47:32.950Z,52.55
2019-03-25T12:50:03.708Z,53.62
2019-03-25T12:52:34.324Z,55.14
2019-03-25T12:55:05.848Z,53.98
2019-03-25T12:57:36.793Z,54.30
2019-03-25T13:00:08.077Z,54.51
2019-03-25T13:02:39.080Z,54.62
2019-03-25T13:05:10.211Z,54.15
2019-03-25T13:07:40.879Z,54.54
2019-03-25T13:10:11.913Z,53.77
2019-03-25T13:12:42.574Z,52.44
2019-03-25T13:15:13.444Z,52.36
2019-03-25T13:17:44.420Z,50.36
2019-03-25T13:20:15.264Z,47.85
2019-03-25T13:22:45.956Z,49.44
2019-03-25T13:25:17.136Z,49.96
2019-03-25T13:27:47.949Z,51.87
2019-03-25T13:30:19.575Z,51.04
2019-03-25T13:32:50.401Z,53.09
2019-03-25T13:35:21.047Z,63.52
2019-03-25T13:37:52.337Z,73.29
2019-03-25T13:40:22.975Z,77.36
2019-03-25T13:42:53.647Z,78.35
2019-03-25T13:45:24.376Z,78.68
2019-03-25T13:47:55.589Z,75.71
2019-03-25T13:50:26.631Z,70.79
2019-03-25T13:52:57.285Z,71.38
2019-03-25T13:55:28.225Z,69.72
2019-03-25T13:57:59.013Z,70.45
2019-03-25T14:00:41.243Z,65.57
2019-03-25T14:03:11.890Z,62.74
2019-03-25T14:05:42.638Z,59.37
2019-03-25T14:08:13.551Z,58.11
2019-03-25T14:10:44.230Z,58.97
2019-03-25T14:13:15.322Z,61.96
2019-03-25T14:15:45.994Z,58.23
2019-03-25T14:18:16.660Z,58.59
2019-03-25T14:20:48.162Z,59.56
2019-03-25T14:23:18.895Z,58.34
2019-03-25T14:25:49.531Z,54.71
2019-03-25T14:28:20.961Z,54.41
2019-03-25T14:30:51.589Z,56.08
2019-03-25T14:33:22.269Z,55.94
2019-03-25T14:35:52.908Z,56.37
2019-03-25T14:38:23.583Z,55.28
2019-03-25T14:40:54.247Z,53.57
2019-03-25T14:43:25.303Z,52.74
2019-03-25T14:45:56.594Z,50.86
2019-03-25T14:48:27.373Z,51.92
2019-03-25T14:50:58.004Z,52.99
2019-03-25T14:53:28.717Z,52.10
2019-03-25T14:55:59.698Z,50.81
2019-03-25T14:58:30.355Z,51.81
2019-03-25T15:01:01.460Z,50.66
2019-03-25T15:03:32.374Z,50.97
2019-03-25T15:06:03.245Z,50.87
2019-03-25T15:08:34.092Z,50.73
2019-03-25T15:11:04.746Z,50.04
2019-03-25T15:13:35.789Z,50.32
2019-03-25T15:16:06.914Z,50.51
2019-03-25T15:18:38.278Z,48.96
2019-03-25T15:21:09.465Z,48.19
2019-03-25T15:23:40.810Z,48.59
2019-03-25T15:26:12.120Z,48.07
2019-03-25T15:28:43.545Z,48.13
2019-03-25T15:31:14.374Z,48.51
2019-03-25T15:33:45.961Z,49.97
2019-03-25T15:36:16.661Z,49.96
2019-03-25T15:38:47.917Z,49.94
2019-03-25T15:41:19.394Z,50.15
2019-03-25T15:43:50.425Z,49.79
2019-03-25T15:46:21.581Z,50.57
2019-03-25T15:48:52.749Z,51.37
2019-03-25T15:51:23.846Z,51.16
2019-03-25T15:53:54.553Z,51.69
2019-03-25T15:56:25.685Z,50.99
2019-03-25T15:58:56.371Z,50.96
2019-03-25T16:01:27.287Z,50.32
2019-03-25T16:03:58.024Z,49.36
2019-03-25T16:06:28.780Z,48.85
2019-03-25T16:08:59.520Z,48.95
2019-03-25T16:11:30.323Z,48.29
2019-03-25T16:14:01.281Z,48.80
2019-03-25T16:16:31.956Z,50.80
2019-03-25T16:19:02.670Z,51.88
2019-03-25T16:21:33.337Z,52.47
2019-03-25T16:24:04.454Z,53.14
2019-03-25T16:26:35.225Z,52.51
2019-03-25T16:29:06.276Z,52.43
2019-03-25T16:31:37.550Z,51.64
2019-03-25T16:34:08.493Z,54.84
2019-03-25T16:36:39.732Z,56.30
2019-03-25T16:39:11.469Z,57.83
2019-03-25T16:41:42.205Z,60.02
2019-03-25T16:44:13.139Z,60.50
2019-03-25T16:46:43.863Z,61.95
2019-03-25T16:49:15.102Z,61.56
2019-03-25T16:51:45.890Z,61.53
2019-03-25T16:54:16.618Z,59.00
2019-03-25T16:56:47.326Z,55.78
2019-03-25T16:59:17.975Z,55.29
2019-03-25T17:01:49.572Z,54.88
2019-03-25T17:04:20.357Z,55.12
2019-03-25T17:06:51.179Z,55.26
2019-03-25T17:09:21.981Z,55.74
2019-03-25T17:11:52.958Z,56.41
2019-03-25T17:14:23.595Z,57.42
2019-03-25T17:16:54.559Z,57.79
2019-03-25T17:19:25.499Z,58.20
2019-03-25T17:21:58.292Z,58.80
2019-03-25T17:24:29.683Z,59.43
2019-03-25T17:27:00.794Z,60.05
2019-03-25T17:29:31.454Z,60.46
2019-03-25T17:32:02.140Z,61.02
2019-03-25T17:34:33.130Z,61.53
2019-03-25T17:37:05.853Z,62.22
2019-03-25T17:39:36.892Z,62.77
2019-03-25T17:42:07.960Z,63.47
2019-03-25T17:44:38.692Z,63.47
2019-03-25T17:47:09.844Z,63.68
2019-03-25T17:49:40.754Z,64.09
2019-03-25T17:52:11.526Z,64.35
2019-03-25T17:54:42.244Z,64.21
2019-03-25T17:57:13.238Z,64.39
2019-03-25T17:59:44.201Z,64.59
2019-03-25T18:02:14.940Z,64.56
2019-03-25T18:04:45.932Z,64.41
2019-03-25T18:07:17.225Z,65.62
2019-03-25T18:09:47.945Z,65.16
2019-03-25T18:12:19.764Z,65.86
2019-03-25T18:14:50.466Z,66.34
2019-03-25T18:17:21.201Z,66.99
2019-03-25T18:19:51.880Z,67.01
2019-03-25T18:22:22.772Z,67.22
2019-03-25T18:24:53.408Z,67.78
2019-03-25T18:27:24.402Z,68.44
2019-03-25T18:29:55.497Z,68.41
2019-03-25T18:32:26.737Z,67.26
2019-03-25T18:34:57.427Z,67.67
2019-03-25T18:37:28.101Z,69.60
2019-03-25T18:39:58.835Z,71.19
2019-03-25T18:42:29.511Z,71.19
2019-03-25T18:45:00.350Z,69.36
2019-03-25T18:47:31.304Z,68.76
2019-03-25T18:50:02.062Z,69.13
2019-03-25T18:52:32.859Z,69.79
2019-03-25T18:55:03.575Z,70.74
2019-03-25T18:57:34.300Z,71.11
2019-03-25T19:00:06.071Z,71.38
2019-03-25T19:02:37.820Z,71.77
2019-03-25T19:05:09.218Z,71.89
2019-03-25T19:07:40.007Z,72.07
2019-03-25T19:10:16.142Z,71.95
2019-03-25T19:12:47.195Z,72.19
2019-03-25T19:15:18.118Z,72.47
2019-03-25T19:17:49.142Z,72.87
2019-03-25T19:20:20.949Z,73.12
2019-03-25T19:22:51.733Z,73.29
2019-03-25T19:25:22.930Z,73.57
2019-03-25T19:27:53.797Z,73.94
2019-03-25T19:30:24.817Z,74.10
2019-03-25T19:32:55.475Z,74.17
2019-03-25T19:35:26.193Z,74.31
2019-03-25T19:37:56.873Z,74.47
2019-03-25T19:40:27.819Z,75.37
2019-03-25T19:42:58.861Z,76.33
2019-03-25T19:45:29.892Z,76.95
2019-03-25T19:48:00.561Z,77.03
2019-03-25T19:50:31.534Z,77.03
2019-03-25T19:53:02.298Z,76.99
2019-03-25T19:55:32.982Z,76.90
2019-03-25T19:58:03.749Z,77.09
2019-03-25T20:00:38.248Z,77.08
2019-03-25T20:03:09.099Z,77.35
2019-03-25T20:05:40.491Z,78.16
2019-03-25T20:08:11.633Z,79.00
2019-03-25T20:10:42.724Z,79.82
2019-03-25T20:13:13.511Z,80.33
2019-03-25T20:15:47.167Z,80.92
2019-03-25T20:18:17.952Z,81.39
2019-03-25T20:20:49.048Z,81.67
2019-03-25T20:23:20.414Z,81.73
2019-03-25T20:25:51.183Z,81.36
2019-03-25T20:28:25.375Z,81.24
2019-03-25T20:30:56.419Z,80.94
2019-03-25T20:33:27.118Z,80.90
2019-03-25T20:35:58.204Z,80.85
2019-03-25T20:38:28.909Z,80.98
2019-03-25T20:40:59.840Z,81.03
2019-03-25T20:43:30.575Z,81.13
2019-03-25T20:46:01.301Z,81.40
2019-03-25T20:48:32.306Z,81.71
2019-03-25T20:51:04.210Z,81.72
2019-03-25T20:53:36.153Z,81.65
2019-03-25T20:56:07.453Z,81.91
2019-03-25T20:58:39.006Z,82.02
2019-03-25T21:01:10.021Z,81.99
2019-03-25T21:03:40.794Z,81.98
2019-03-25T21:06:11.460Z,81.98
2019-03-25T21:08:42.140Z,81.85
2019-03-25T21:11:12.880Z,81.52
2019-03-25T21:13:43.953Z,81.27
2019-03-25T21:16:14.635Z,81.20
2019-03-25T21:18:45.699Z,80.81
2019-03-25T21:21:16.645Z,80.60
2019-03-25T21:23:47.469Z,80.25
2019-03-25T21:26:18.165Z,80.30
2019-03-25T21:28:49.207Z,80.45
2019-03-25T21:31:19.939Z,80.24
2019-03-25T21:33:50.853Z,80.14
2019-03-25T21:36:22.658Z,80.55
2019-03-25T21:38:53.366Z,80.97
2019-03-25T21:41:24.059Z,81.68
2019-03-25T21:43:55.199Z,82.02
2019-03-25T21:46:26.321Z,82.32
2019-03-25T21:48:57.307Z,82.53
2019-03-25T21:51:28.304Z,82.80
2019-03-25T21:53:59.229Z,83.07
2019-03-25T21:56:30.091Z,83.32
2019-03-25T21:59:00.829Z,83.50
2019-03-25T22:01:31.707Z,83.76
2019-03-25T22:04:02.703Z,83.85
2019-03-25T22:06:33.361Z,84.00
2019-03-25T22:09:05.470Z,84.04
2019-03-25T22:11:36.403Z,83.95
2019-03-25T22:14:07.143Z,83.72
2019-03-25T22:16:37.878Z,83.49
2019-03-25T22:19:08.896Z,83.23
2019-03-25T22:21:40.458Z,83.01
2019-03-25T22:24:11.145Z,82.97
2019-03-25T22:26:41.798Z,82.95
2019-03-25T22:29:12.744Z,82.84
2019-03-25T22:31:43.405Z,82.77
2019-03-25T22:34:14.080Z,82.51
2019-03-25T22:36:44.900Z,82.17
2019-03-25T22:39:15.683Z,81.97
2019-03-25T22:41:47.106Z,81.92
2019-03-25T22:44:18.370Z,81.95
2019-03-25T22:46:49.390Z,81.69
2019-03-25T22:49:20.065Z,81.02
2019-03-25T22:51:50.838Z,80.64
2019-03-25T22:54:21.502Z,80.51
2019-03-25T22:56:52.641Z,80.42
2019-03-25T22:59:23.306Z,79.90
2019-03-25T23:01:54.395Z,79.90
2019-03-25T23:04:25.082Z,79.48
2019-03-25T23:06:55.807Z,79.04
2019-03-25T23:09:26.495Z,78.67
2019-03-25T23:11:57.195Z,78.50
2019-03-25T23:14:27.922Z,78.36
2019-03-25T23:16:58.602Z,78.15
2019-03-25T23:19:29.299Z,78.28
2019-03-25T23:22:00.595Z,78.42
2019-03-25T23:24:31.257Z,78.31
2019-03-25T23:27:01.895Z,78.39
2019-03-25T23:29:32.837Z,78.56
2019-03-25T23:32:03.531Z,78.70
2019-03-25T23:34:34.229Z,78.94
2019-03-25T23:37:06.323Z,79.15
2019-03-25T23:39:37.020Z,78.97
2019-03-25T23:42:07.801Z,79.02
2019-03-25T23:44:38.495Z,79.17
2019-03-25T23:47:09.515Z,79.49
2019-03-25T23:49:40.198Z,79.57
2019-03-25T23:52:10.878Z,79.83
2019-03-25T23:54:41.546Z,80.14
2019-03-25T23:57:12.901Z,80.46
2019-03-25T23:59:43.951Z,80.70
